createdAt,value
2022-11-11T00:01:22.438Z,100462.25
2022-11-11T00:06:44.075Z,100467.00
2022-11-11T00:12:06.320Z,100473.22
2022-11-11T00:17:46.520Z,100484.94
2022-11-11T00:23:41.350Z,100477.09
2022-11-11T00:29:02.906Z,100499.03
2022-11-11T00:34:25.965Z,100502.16
2022-11-11T00:39:47.221Z,100505.09
2022-11-11T00:45:09.813Z,100507.22
2022-11-11T00:50:50.103Z,100518.03
2022-11-11T00:56:11.731Z,100510.34
2022-11-11T01:01:33.303Z,100497.75
2022-11-11T01:06:56.258Z,100489.53
2022-11-11T01:12:18.081Z,100487.56
2022-11-11T01:17:39.326Z,100486.59
2022-11-11T01:23:02.106Z,100484.28
2022-11-11T01:28:24.370Z,100470.50
2022-11-11T01:33:46.412Z,100486.56
2022-11-11T01:39:10.591Z,100482.19
2022-11-11T01:44:47.532Z,100484.00
2022-11-11T01:50:10.285Z,100498.03
2022-11-11T01:55:34.185Z,100494.78
2022-11-11T02:00:55.421Z,100494.78
2022-11-11T02:06:17.173Z,100480.19
2022-11-11T02:12:00.473Z,100480.72
2022-11-11T02:17:22.095Z,100469.94
2022-11-11T02:22:55.078Z,100473.22
2022-11-11T02:28:19.265Z,100462.91
2022-11-11T02:33:40.827Z,100457.47
2022-11-11T02:39:02.668Z,100452.69
2022-11-11T02:44:25.811Z,100465.47
2022-11-11T02:49:47.123Z,100461.72
2022-11-11T02:55:09.598Z,100466.16
2022-11-11T03:00:32.474Z,100466.31
2022-11-11T03:05:53.992Z,100472.50
2022-11-11T03:11:15.544Z,100478.03
2022-11-11T03:16:56.071Z,100475.97
2022-11-11T03:27:59.059Z,100503.63
2022-11-11T03:33:21.983Z,100503.63
2022-11-11T03:38:43.424Z,100506.91
2022-11-11T03:44:04.799Z,100501.66
2022-11-11T03:49:27.439Z,100509.50
2022-11-11T03:54:48.703Z,100492.97
2022-11-11T04:00:14.624Z,100490.50
2022-11-11T04:05:55.267Z,100491.84
2022-11-11T04:11:28.158Z,100514.41
2022-11-11T04:16:49.638Z,100517.03
2022-11-11T04:22:12.437Z,100508.22
2022-11-11T04:27:33.906Z,100500.97
2022-11-11T04:32:55.037Z,100503.97
2022-11-11T04:38:35.440Z,100494.66
2022-11-11T04:44:14.259Z,100494.81
2022-11-11T04:49:36.121Z,100492.19
2022-11-11T04:55:21.569Z,100471.38
2022-11-11T05:00:43.574Z,100470.75
2022-11-11T05:06:23.054Z,100457.16
2022-11-11T05:11:45.851Z,100456.84
2022-11-11T05:17:25.042Z,100458.44
2022-11-11T05:22:46.615Z,100462.06
2022-11-11T05:28:09.218Z,100462.84
2022-11-11T05:33:30.555Z,100468.94
2022-11-11T05:38:51.875Z,100480.19
2022-11-11T05:44:14.427Z,100490.88
2022-11-11T05:49:35.873Z,100486.88
2022-11-11T05:54:57.335Z,100483.94
2022-11-11T06:00:20.635Z,100499.34
2022-11-11T06:05:42.165Z,100496.06
2022-11-11T06:11:03.489Z,100490.16
2022-11-11T06:16:26.246Z,100493.75
2022-11-11T06:22:00.971Z,100476.72
2022-11-11T06:27:22.799Z,100472.78
2022-11-11T06:32:45.267Z,100490.09
2022-11-11T06:38:08.267Z,100505.94
2022-11-11T06:43:30.390Z,100498.88
2022-11-11T06:48:53.026Z,100492.38
2022-11-11T06:54:15.181Z,100498.44
2022-11-11T06:59:36.579Z,100507.50
2022-11-11T07:04:59.455Z,100495.38
2022-11-11T07:10:21.247Z,100487.63
2022-11-11T07:15:43.211Z,100494.84
2022-11-11T07:21:06.374Z,100501.97
2022-11-11T07:26:27.890Z,100509.44
2022-11-11T07:31:51.186Z,100516.84
2022-11-11T07:37:14.123Z,100512.81
2022-11-11T07:42:37.074Z,100527.88
2022-11-11T07:47:58.490Z,100546.09
2022-11-11T07:53:21.531Z,100556.28
2022-11-11T07:58:43.260Z,100564.78
2022-11-11T08:04:04.825Z,100569.34
2022-11-11T08:09:27.742Z,100579.84
2022-11-11T08:14:48.950Z,100583.47
2022-11-11T08:20:11.774Z,100593.91
2022-11-11T08:25:34.318Z,100589.72
2022-11-11T08:30:59.050Z,100596.31
2022-11-11T08:36:25.396Z,100606.09
2022-11-11T08:41:48.539Z,100604.38
2022-11-11T08:47:10.006Z,100607.19
2022-11-11T08:52:31.391Z,100600.28
2022-11-11T08:58:00.618Z,100604.19
2022-11-11T09:03:22.507Z,100605.03
2022-11-11T09:08:44.942Z,100593.00
2022-11-11T09:14:07.632Z,100600.53
2022-11-11T09:19:28.897Z,100605.56
2022-11-11T09:24:50.085Z,100612.59
2022-11-11T09:30:13.743Z,100619.28
2022-11-11T09:35:35.679Z,100629.16
2022-11-11T09:41:07.711Z,100614.44
2022-11-11T09:46:36.699Z,100613.47
2022-11-11T09:52:03.625Z,100612.97
2022-11-11T09:57:36.299Z,100601.63
2022-11-11T10:03:07.391Z,100597.13
2022-11-11T10:08:30.983Z,100611.09
2022-11-11T10:13:56.984Z,100614.91
2022-11-11T10:19:30.744Z,100622.94
2022-11-11T10:25:04.551Z,100617.75
2022-11-11T10:30:31.871Z,100600.50
2022-11-11T10:35:57.724Z,100603.75
2022-11-11T10:41:22.777Z,100605.81
2022-11-11T10:46:54.592Z,100605.81
2022-11-11T10:52:23.927Z,100620.81
2022-11-11T10:57:51.541Z,100616.78
2022-11-11T11:03:17.560Z,100617.56
2022-11-11T11:08:46.319Z,100628.97
2022-11-11T11:14:11.845Z,100625.72
2022-11-11T11:19:33.540Z,100609.81
2022-11-11T11:25:11.369Z,100613.09
2022-11-11T11:30:33.111Z,100615.31
2022-11-11T11:35:54.443Z,100619.63
2022-11-11T11:41:17.738Z,100613.50
2022-11-11T11:46:40.431Z,100605.56
2022-11-11T11:52:07.707Z,100594.78
2022-11-11T11:57:42.967Z,100595.56
2022-11-11T12:03:25.831Z,100594.28
2022-11-11T12:08:59.280Z,100597.56
2022-11-11T12:14:54.844Z,100589.47
2022-11-11T12:20:22.073Z,100582.66
2022-11-11T12:26:02.704Z,100587.28
2022-11-11T12:31:35.078Z,100575.22
2022-11-11T12:37:02.074Z,100577.72
2022-11-11T12:42:37.123Z,100570.91
2022-11-11T12:48:16.547Z,100558.75
2022-11-11T12:53:48.533Z,100562.25
2022-11-11T12:59:20.505Z,100560.69
2022-11-11T13:04:58.279Z,100568.91
2022-11-11T13:10:29.597Z,100561.44
2022-11-11T13:15:53.301Z,100569.56
2022-11-11T13:21:19.267Z,100567.38
2022-11-11T13:26:45.000Z,100580.16
2022-11-11T13:32:10.873Z,100573.44
2022-11-11T13:37:34.591Z,100573.06
2022-11-11T13:42:56.328Z,100581.41
2022-11-11T13:48:22.932Z,100590.56
2022-11-11T13:53:49.124Z,100595.66
2022-11-11T13:59:22.685Z,100597.47
2022-11-11T14:05:17.612Z,100603.72
2022-11-11T14:10:56.667Z,100605.78
2022-11-11T14:17:02.106Z,100596.41
2022-11-11T14:22:32.428Z,100597.63
2022-11-11T14:27:55.197Z,100599.16
2022-11-11T14:33:31.344Z,100612.13
2022-11-11T14:39:05.283Z,100601.56
2022-11-11T14:44:42.525Z,100598.25
2022-11-11T14:50:25.740Z,100592.41
2022-11-11T14:55:55.363Z,100598.53
2022-11-11T15:01:20.971Z,100603.59
2022-11-11T15:06:47.151Z,100602.06
2022-11-11T15:12:28.863Z,100617.38
2022-11-11T15:18:02.924Z,100617.75
2022-11-11T15:23:34.427Z,100613.84
2022-11-11T15:29:11.720Z,100624.06
2022-11-11T15:34:41.748Z,100625.19
2022-11-11T15:40:05.181Z,100612.53
2022-11-11T15:45:34.755Z,100615.53
2022-11-11T15:50:58.470Z,100621.25
2022-11-11T15:56:30.424Z,100615.00
2022-11-11T16:01:53.314Z,100624.25
2022-11-11T16:07:21.526Z,100634.94
2022-11-11T16:12:47.420Z,100630.75
2022-11-11T16:18:16.273Z,100641.25
2022-11-11T16:23:40.003Z,100630.91
2022-11-11T16:29:01.481Z,100628.66
2022-11-11T16:34:35.656Z,100634.75
2022-11-11T16:40:36.561Z,100630.56
2022-11-11T16:46:03.874Z,100630.69
2022-11-11T16:51:38.261Z,100629.75
2022-11-11T16:57:01.523Z,100634.97
2022-11-11T17:02:26.102Z,100634.56
2022-11-11T17:07:47.515Z,100630.63
2022-11-11T17:13:10.425Z,100624.63
2022-11-11T17:18:35.319Z,100634.72
2022-11-11T17:23:56.847Z,100646.97
2022-11-11T17:29:19.762Z,100654.44
2022-11-11T17:34:41.220Z,100662.28
2022-11-11T17:40:02.664Z,100660.94
2022-11-11T17:45:25.208Z,100659.34
2022-11-11T17:50:46.511Z,100669.50
2022-11-11T17:56:10.403Z,100672.44
2022-11-11T18:01:33.058Z,100668.00
2022-11-11T18:06:54.977Z,100675.34
2022-11-11T18:12:17.055Z,100678.31
2022-11-11T18:17:39.619Z,100674.06
2022-11-11T18:23:01.202Z,100669.13
2022-11-11T18:28:22.435Z,100672.72
2022-11-11T18:33:45.921Z,100667.31
2022-11-11T18:39:07.157Z,100662.56
2022-11-11T18:44:28.309Z,100664.47
2022-11-11T18:49:51.330Z,100668.25
2022-11-11T18:55:13.014Z,100669.06
2022-11-11T19:00:34.339Z,100663.72
2022-11-11T19:06:00.777Z,100670.88
2022-11-11T19:11:22.172Z,100674.16
2022-11-11T19:16:44.052Z,100682.44
2022-11-11T19:22:07.032Z,100681.78
2022-11-11T19:27:28.424Z,100682.91
2022-11-11T19:32:49.627Z,100695.81
2022-11-11T19:38:12.097Z,100702.31
2022-11-11T19:43:34.207Z,100696.91
2022-11-11T19:48:57.125Z,100699.88
2022-11-11T19:54:21.108Z,100704.59
2022-11-11T19:59:42.480Z,100703.00
2022-11-11T20:05:04.814Z,100702.91
2022-11-11T20:10:27.845Z,100708.03
2022-11-11T20:15:49.661Z,100707.47
2022-11-11T20:21:12.170Z,100720.16
2022-11-11T20:26:34.751Z,100718.56
2022-11-11T20:31:56.503Z,100725.75
2022-11-11T20:37:18.247Z,100717.47
2022-11-11T20:42:41.188Z,100729.56
2022-11-11T20:48:02.928Z,100737.38
2022-11-11T20:53:24.478Z,100737.91
2022-11-11T20:58:48.643Z,100742.78
2022-11-11T21:04:10.377Z,100736.78
2022-11-11T21:09:32.054Z,100745.53
2022-11-11T21:14:54.788Z,100750.06
2022-11-11T21:20:17.640Z,100742.00
2022-11-11T21:25:39.089Z,100744.41
2022-11-11T21:31:02.731Z,100743.63
2022-11-11T21:36:26.413Z,100744.78
2022-11-11T21:41:47.757Z,100743.94
2022-11-11T21:47:11.594Z,100740.72
2022-11-11T21:52:32.863Z,100747.28
2022-11-11T21:57:54.151Z,100748.31
2022-11-11T22:03:16.698Z,100742.72
2022-11-11T22:08:39.639Z,100747.25
2022-11-11T22:14:02.653Z,100745.63
2022-11-11T22:19:25.323Z,100745.63
2022-11-11T22:24:46.632Z,100748.09
2022-11-11T22:30:09.098Z,100757.69
2022-11-11T22:35:33.774Z,100755.56
2022-11-11T22:40:55.468Z,100756.13
2022-11-11T22:46:19.311Z,100759.47
2022-11-11T22:51:44.286Z,100759.63
2022-11-11T22:57:05.583Z,100756.75
2022-11-11T23:02:28.024Z,100744.28
2022-11-11T23:07:51.120Z,100739.75
2022-11-11T23:13:12.413Z,100743.09
2022-11-11T23:18:33.815Z,100732.66
2022-11-11T23:23:57.551Z,100747.06
2022-11-11T23:29:18.890Z,100740.91
2022-11-11T23:34:40.272Z,100745.56
2022-11-11T23:40:03.027Z,100737.59
2022-11-11T23:45:24.607Z,100737.63
2022-11-11T23:50:46.476Z,100733.38
2022-11-11T23:56:09.514Z,100742.00
